Time;durP1;ratioP1;P1;durP2;ratioP2;P2;SDS_P1;SDS_P2;PMS_P1;PMS_P2;Temp;Humidity;BMP_temperature;BMP_pressure;BME280_temperature;BME280_humidity;BME280_pressure;Samples;Min_cycle;Max_cycle;Signal;HPM_P1;HPM_P2
2023/05/26 00:00:21;;;;;;;2.20;1.90;;;;;;;17.15;100.00;98131.34;1702873;75;759782;-73
2023/05/26 00:02:53;;;;;;;1.70;1.40;;;;;;;17.12;100.00;98126.81;1711892;75;710523;-76
2023/05/26 00:05:25;;;;;;;2.75;1.80;;;;;;;17.10;100.00;98123.03;1701275;75;788757;-73
2023/05/26 00:07:58;;;;;;;2.35;1.75;;;;;;;17.11;100.00;98128.06;1710557;75;821447;-72
2023/05/26 00:10:29;;;;;;;2.00;1.70;;;;;;;17.12;100.00;98126.81;1678204;75;2755353;-73
2023/05/26 00:12:59;;;;;;;3.50;2.70;;;;;;;17.02;100.00;98131.13;1712117;75;673516;-74
2023/05/26 00:15:29;;;;;;;4.65;4.15;;;;;;;16.83;100.00;98120.59;1704714;75;733797;-74
2023/05/26 00:18:01;;;;;;;4.00;3.60;;;;;;;16.98;100.00;98120.34;1714416;75;672794;-76
2023/05/26 00:20:33;;;;;;;4.70;3.20;;;;;;;17.06;100.00;98112.25;1704815;75;741068;-73
2023/05/26 00:23:06;;;;;;;2.40;2.20;;;;;;;17.09;100.00;98107.72;1713292;75;671614;-74
2023/05/26 00:25:36;;;;;;;2.55;2.20;;;;;;;17.13;100.00;98102.69;1704292;75;734247;-73
2023/05/26 00:28:07;;;;;;;1.95;1.75;;;;;;;17.15;100.00;98102.91;1686352;75;2934446;-74
2023/05/26 00:30:38;;;;;;;2.05;1.85;;;;;;;17.07;100.00;98104.69;1703194;75;743001;-73
2023/05/26 00:33:08;;;;;;;2.05;1.80;;;;;;;17.11;100.00;98099.66;1712077;75;668804;-74
2023/05/26 00:35:38;;;;;;;2.00;1.80;;;;;;;17.11;100.00;98097.66;1688374;75;1956701;-75
2023/05/26 00:38:11;;;;;;;2.15;1.90;;;;;;;17.14;100.00;98093.09;1685907;75;2915329;-73
2023/05/26 00:40:41;;;;;;;4.55;2.05;;;;;;;17.13;100.00;98089.59;1633588;75;6586506;-73
2023/05/26 00:43:13;;;;;;;1.90;1.70;;;;;;;17.12;100.00;98101.91;1712661;75;675680;-73
2023/05/26 00:45:43;;;;;;;2.30;1.70;;;;;;;17.11;100.00;98097.66;1700784;75;917895;-75
2023/05/26 00:48:13;;;;;;;2.10;1.90;;;;;;;17.02;100.00;98093.16;1709446;75;948764;-73
2023/05/26 00:50:43;;;;;;;2.30;1.80;;;;;;;17.03;100.00;98091.91;1653342;75;4926558;-77
2023/05/26 00:53:17;;;;;;;2.50;2.00;;;;;;;17.01;100.00;98093.66;1712702;75;676128;-77
2023/05/26 00:55:48;;;;;;;2.20;2.00;;;;;;;16.94;100.00;98094.19;1701436;75;850790;-72
2023/05/26 00:58:19;;;;;;;2.30;2.10;;;;;;;16.93;100.00;98090.69;1709851;75;888462;-74
2023/05/26 01:00:49;;;;;;;3.45;2.55;;;;;;;16.91;100.00;98090.44;1702192;75;824876;-73
2023/05/26 01:03:21;;;;;;;2.50;2.20;;;;;;;17.00;100.00;98081.09;1699294;75;1792242;-73
2023/05/26 01:05:51;;;;;;;3.10;2.30;;;;;;;16.97;100.00;98082.09;1676993;75;2900067;-76
2023/05/26 01:08:26;;;;;;;2.30;2.00;;;;;;;17.03;100.00;98088.38;1712254;75;680556;-75
2023/05/26 01:11:04;;;;;;;3.45;2.15;;;;;;;17.04;100.00;98087.13;1703613;75;742738;-76
2023/05/26 01:13:44;;;;;;;2.10;1.90;;;;;;;17.00;100.00;98078.31;1692027;75;1746729;-73
2023/05/26 01:16:21;;;;;;;2.20;1.70;;;;;;;16.98;100.00;98078.84;1711820;75;672747;-75
2023/05/26 01:19:00;;;;;;;4.80;2.20;;;;;;;16.93;100.00;98078.84;1701569;75;931019;-77
2023/05/26 01:21:31;;;;;;;2.20;2.00;;;;;;;16.87;100.00;98078.13;1709693;75;973912;-78
2023/05/26 01:24:17;;;;;;;2.30;2.10;;;;;;;16.88;100.00;98076.88;1705682;75;726557;-74
2023/05/26 01:27:01;;;;;;;;;;;;;;;16.95;100.00;98082.59;1605451;75;9061140;-72
2023/05/26 01:29:38;;;;;;;2.70;2.30;;;;;;;16.83;100.00;98067.31;1715831;75;672020;-73
2023/05/26 01:32:18;;;;;;;2.75;2.10;;;;;;;16.86;100.00;98071.09;1537494;67;14757006;-75
2023/05/26 01:34:48;;;;;;;3.70;2.75;;;;;;;16.80;100.00;98068.34;1654040;75;4967564;-76
2023/05/26 01:37:19;;;;;;;3.80;3.20;;;;;;;16.69;100.00;98065.59;1688854;75;2719990;-75
2023/05/26 01:39:48;;;;;;;;;;;;;;;16.73;100.00;98066.09;1678196;75;2926407;-77
2023/05/26 01:42:27;;;;;;;3.40;3.10;;;;;;;16.71;100.00;98065.84;1712060;75;672387;-73
2023/05/26 01:45:08;;;;;;;3.30;2.80;;;;;;;16.69;100.00;98065.59;1704726;75;670658;-73
2023/05/26 01:47:39;;;;;;;2.60;2.40;;;;;;;16.73;100.00;98063.31;1712111;75;679418;-73
2023/05/26 01:50:12;;;;;;;4.20;3.45;;;;;;;16.63;100.00;98062.09;1630715;75;6786569;-73
2023/05/26 01:52:46;;;;;;;3.20;2.90;;;;;;;16.65;100.00;98065.13;1699747;75;1747651;-72
2023/05/26 01:55:18;;;;;;;3.40;2.70;;;;;;;16.55;100.00;98067.41;1703003;75;749568;-73
2023/05/26 01:57:49;;;;;;;3.00;2.70;;;;;;;16.53;100.00;98061.63;1711944;75;668047;-73
2023/05/26 02:00:28;;;;;;;3.75;2.55;;;;;;;16.54;100.00;98058.34;1703120;75;736244;-76
2023/05/26 02:02:58;;;;;;;2.90;2.60;;;;;;;16.58;100.00;98053.31;1689771;75;1908688;-72
2023/05/26 02:05:28;;;;;;;3.65;3.00;;;;;;;16.48;100.00;98056.88;1709537;75;878247;-75
2023/05/26 02:07:58;;;;;;;4.20;3.40;;;;;;;16.47;100.00;98058.84;1692105;75;1715247;-76
2023/05/26 02:10:28;;;;;;;3.30;3.00;;;;;;;16.58;100.00;98061.59;1684760;75;2979894;-75
2023/05/26 02:12:58;;;;;;;2.90;2.60;;;;;;;16.64;100.00;98058.81;1689856;75;1910725;-75
2023/05/26 02:15:31;;;;;;;3.10;2.55;;;;;;;16.59;100.00;98063.09;1710626;75;761099;-78
2023/05/26 02:18:03;;;;;;;4.00;2.50;;;;;;;16.49;100.00;98059.09;1653631;75;4923425;-77
2023/05/26 02:20:33;;;;;;;4.10;2.75;;;;;;;16.46;100.00;98059.38;1697022;75;1939878;-76
2023/05/26 02:23:03;;;;;;;2.90;2.50;;;;;;;16.48;100.00;98054.09;1634035;75;6565403;-77
2023/05/26 02:25:33;;;;;;;2.90;2.60;;;;;;;16.48;100.00;98063.13;1617151;75;8615278;-77
2023/05/26 02:28:04;;;;;;;3.00;2.70;;;;;;;16.49;100.00;98053.56;1689891;75;1900028;-73
2023/05/26 02:30:36;;;;;;;4.35;2.50;;;;;;;16.46;100.00;98056.63;1711446;75;678875;-74
2023/05/26 02:33:07;;;;;;;3.60;2.65;;;;;;;16.40;100.00;98056.59;1692306;75;1702963;-74
2023/05/26 02:35:38;;;;;;;3.80;2.70;;;;;;;16.40;100.00;98067.66;1699410;75;1741971;-73
2023/05/26 02:38:08;;;;;;;2.55;2.15;;;;;;;16.33;100.00;98062.66;1702690;75;724262;-75
2023/05/26 02:40:38;;;;;;;2.50;2.10;;;;;;;16.29;100.00;98064.94;1711429;75;673822;-76
2023/05/26 02:43:11;;;;;;;3.10;2.30;;;;;;;16.26;100.00;98055.66;1703740;75;672936;-76
2023/05/26 02:45:44;;;;;;;2.40;2.20;;;;;;;16.26;100.00;98061.19;1686103;75;2849422;-74
2023/05/26 02:48:14;;;;;;;2.80;2.50;;;;;;;16.26;100.00;98058.41;1704262;75;680938;-79
2023/05/26 02:50:45;;;;;;;2.35;2.15;;;;;;;16.30;100.00;98064.41;1711780;75;678233;-77
2023/05/26 02:53:15;;;;;;;2.30;2.00;;;;;;;16.24;100.00;98062.94;1702121;75;842458;-73
2023/05/26 02:55:45;;;;;;;2.70;2.00;;;;;;;16.18;100.00;98071.97;1709675;75;875073;-75
2023/05/26 02:58:15;;;;;;;3.00;2.30;;;;;;;16.22;100.00;98059.94;1702979;75;778719;-76
2023/05/26 03:00:48;;;;;;;2.10;1.90;;;;;;;16.17;100.00;98055.91;1710501;75;817093;-77
2023/05/26 03:03:20;;;;;;;2.80;2.40;;;;;;;15.94;100.00;98061.44;1703689;75;678414;-77
2023/05/26 03:05:51;;;;;;;10.70;6.10;;;;;;;15.59;100.00;98066.66;1710972;75;754016;-74
2023/05/26 03:08:21;;;;;;;8.80;6.80;;;;;;;15.32;100.00;98068.84;1688567;75;1878742;-76
2023/05/26 03:10:52;;;;;;;6.90;5.65;;;;;;;15.66;100.00;98068.94;1711752;75;676580;-74
2023/05/26 03:13:22;;;;;;;5.20;4.70;;;;;;;15.77;100.00;98058.66;1690678;75;1742910;-75
2023/05/26 03:15:58;;;;;;;4.10;3.70;;;;;;;15.89;100.00;98061.44;1711925;75;680445;-74
2023/05/26 03:18:28;;;;;;;3.80;3.20;;;;;;;15.93;100.00;98061.94;1700295;75;937661;-74
2023/05/26 03:20:58;;;;;;;3.15;2.60;;;;;;;15.97;100.00;98060.44;1711658;75;678108;-73
2023/05/26 03:23:28;;;;;;;2.70;2.40;;;;;;;15.94;100.00;98052.41;1700525;75;919515;-76
2023/05/26 03:26:01;;;;;;;3.55;3.00;;;;;;;15.83;100.00;98060.69;1711991;75;677442;-77
2023/05/26 03:28:31;;;;;;;3.80;3.10;;;;;;;15.75;100.00;98049.38;1679473;75;2688380;-73
2023/05/26 03:31:04;;;;;;;5.35;4.20;;;;;;;15.64;100.00;98063.16;1712029;75;682488;-77
2023/05/26 03:33:34;;;;;;;3.90;3.40;;;;;;;15.77;100.00;98061.44;1677178;75;2875115;-76
2023/05/26 03:36:05;;;;;;;3.25;2.95;;;;;;;15.66;100.00;98063.41;1711652;75;676860;-74
2023/05/26 03:38:35;;;;;;;4.10;3.10;;;;;;;15.60;100.00;98068.91;1687379;75;1968618;-74
2023/05/26 03:41:05;;;;;;;2.75;2.30;;;;;;;15.61;100.00;98073.19;1711154;75;776516;-77
2023/05/26 03:43:36;;;;;;;3.80;3.10;;;;;;;15.52;100.00;98070.66;1688169;75;1959113;-72
2023/05/26 03:46:10;;;;;;;4.50;2.80;;;;;;;15.51;100.00;98077.44;1711468;75;698090;-75
2023/05/26 03:48:40;;;;;;;4.20;3.50;;;;;;;15.60;100.00;98077.19;1688627;75;1929276;-78
2023/05/26 03:51:10;;;;;;;3.50;3.00;;;;;;;15.54;100.00;98076.44;1712494;75;674471;-72
2023/05/26 03:53:41;;;;;;;4.15;3.10;;;;;;;15.51;100.00;98071.91;1701664;75;816496;-73
2023/05/26 03:56:13;;;;;;;3.55;2.85;;;;;;;15.57;100.00;98069.91;1711864;75;676172;-75
2023/05/26 03:58:43;;;;;;;2.40;2.15;;;;;;;15.59;100.00;98075.69;1703746;75;754485;-79
2023/05/26 04:01:16;;;;;;;2.30;2.10;;;;;;;15.52;100.00;98076.19;1699955;75;1754978;-74
2023/05/26 04:03:46;;;;;;;3.25;2.60;;;;;;;15.54;100.00;98066.16;1691864;75;1671041;-72
2023/05/26 04:06:16;;;;;;;3.20;2.90;;;;;;;15.53;100.00;98066.66;1712158;75;682906;-74
2023/05/26 04:08:47;;;;;;;3.40;2.90;;;;;;;15.58;100.00;98068.66;1700934;75;859103;-75
2023/05/26 04:11:17;;;;;;;4.80;2.60;;;;;;;15.58;100.00;98065.91;1709004;75;952298;-73
2023/05/26 04:13:47;;;;;;;3.45;3.10;;;;;;;15.56;100.00;98071.16;1703454;75;767624;-74
2023/05/26 04:16:20;;;;;;;4.55;4.10;;;;;;;15.58;100.00;98071.41;1711719;75;722015;-77
2023/05/26 05:45:09;;;;;;;7.10;5.95;;;;;;;16.76;100.00;98096.25;1699945;75;676632;-72
2023/05/26 05:47:39;;;;;;;8.70;5.80;;;;;;;16.91;100.00;98101.50;1709927;75;676805;-70
2023/05/26 05:50:11;;;;;;;8.65;5.95;;;;;;;16.91;100.00;98104.28;1699736;75;733530;-72
2023/05/26 05:52:41;;;;;;;7.30;5.60;;;;;;;17.04;100.00;98104.44;1693878;75;1916300;-71
2023/05/26 05:55:13;;;;;;;7.75;5.50;;;;;;;17.14;100.00;98104.91;1701005;75;745027;-73
2023/05/26 05:57:43;;;;;;;7.35;5.75;;;;;;;17.17;100.00;98108.69;1709928;75;676502;-74
2023/05/26 06:00:18;;;;;;;5.90;5.10;;;;;;;17.28;100.00;98113.44;1700938;75;756751;-71
2023/05/26 06:02:48;;;;;;;6.80;5.80;;;;;;;17.35;100.00;98110.88;1709538;75;752034;-69
2023/05/26 06:05:18;;;;;;;5.65;4.80;;;;;;;17.42;100.00;98104.78;1700102;75;758158;-71
2023/05/26 06:07:48;;;;;;;6.70;5.10;;;;;;;17.52;100.00;98110.03;1709056;75;674291;-70
2023/05/26 06:10:19;;;;;;;7.00;5.60;;;;;;;17.60;100.00;98113.75;1701629;75;748097;-72
2023/05/26 06:12:49;;;;;;;6.25;5.30;;;;;;;17.61;100.00;98116.00;1710001;75;682542;-71
2023/05/26 06:15:22;;;;;;;7.30;5.10;;;;;;;17.80;100.00;98118.94;1701448;75;745214;-72
2023/05/26 06:17:52;;;;;;;5.60;4.30;;;;;;;18.00;100.00;98119.81;1710164;75;670698;-69
2023/05/26 06:20:22;;;;;;;5.35;4.45;;;;;;;18.01;100.00;98115.75;1701461;75;759607;-69
2023/05/26 06:22:53;;;;;;;5.75;5.05;;;;;;;18.10;100.00;98120.97;1636527;75;6804718;-69
2023/05/26 06:25:23;;;;;;;6.60;4.25;;;;;;;18.10;97.18;98118.97;1701449;75;734757;-72
2023/05/26 06:27:53;;;;;;;6.40;4.50;;;;;;;18.17;96.62;98131.50;1709634;75;669071;-71
2023/05/26 06:30:26;;;;;;;6.00;4.30;;;;;;;18.17;96.33;98125.97;1698759;75;900744;-72
2023/05/26 06:32:57;;;;;;;6.00;4.60;;;;;;;18.35;95.27;98121.78;1709972;75;674282;-68
2023/05/26 06:35:27;;;;;;;4.70;3.70;;;;;;;18.46;92.83;98124.44;1700229;75;760005;-72
2023/05/26 06:37:58;;;;;;;4.20;3.30;;;;;;;18.66;91.52;98128.78;1709802;75;676264;-73
2023/05/26 06:40:30;;;;;;;4.60;3.60;;;;;;;18.74;87.80;98120.66;1696730;75;742267;-69
2023/05/26 06:43:00;;;;;;;5.30;3.55;;;;;;;18.81;85.90;98122.88;1701367;75;681934;-71
2023/05/26 06:45:33;;;;;;;4.60;3.40;;;;;;;18.88;86.29;98127.06;1698700;75;776410;-70
2023/05/26 06:48:03;;;;;;;6.00;4.20;;;;;;;18.89;84.99;98123.06;1702575;75;677865;-69
2023/05/26 06:50:34;;;;;;;6.15;4.65;;;;;;;18.83;83.28;98119.56;1689770;75;779948;-71
2023/05/26 06:53:04;;;;;;;4.90;3.90;;;;;;;18.96;83.53;98116.91;1703147;75;677203;-74
2023/05/26 06:55:34;;;;;;;5.50;3.95;;;;;;;19.14;82.43;98118.22;1677908;75;2599335;-70
2023/05/26 06:58:04;;;;;;;5.30;4.50;;;;;;;19.20;81.39;98112.59;1709963;75;677745;-72
2023/05/26 07:00:37;;;;;;;5.85;4.75;;;;;;;19.30;79.57;98122.06;1698759;75;761120;-74
2023/05/26 07:03:07;;;;;;;6.25;4.60;;;;;;;19.36;78.08;98114.41;1707040;75;676169;-68
2023/05/26 07:05:38;;;;;;;7.75;3.75;;;;;;;19.45;77.57;98118.84;1701183;75;749457;-70
2023/05/26 07:08:08;;;;;;;5.80;4.75;;;;;;;19.62;76.25;98118.59;1710394;75;668878;-69
2023/05/26 07:10:38;;;;;;;8.15;5.80;;;;;;;19.67;75.89;98112.22;1700082;75;743424;-72
2023/05/26 07:13:08;;;;;;;6.90;4.60;;;;;;;19.77;77.83;98113.34;1710462;75;673640;-73
2023/05/26 07:15:41;;;;;;;6.15;4.20;;;;;;;19.75;78.54;98111.13;1701453;75;752603;-70
2023/05/26 07:18:12;;;;;;;5.30;3.70;;;;;;;19.89;78.53;98111.16;1710186;75;675473;-71
2023/05/26 07:20:43;;;;;;;6.80;4.75;;;;;;;19.89;75.56;98113.94;1701221;75;745463;-72
2023/05/26 07:23:14;;;;;;;8.20;4.30;;;;;;;20.07;74.88;98113.16;1710617;75;689947;-69
2023/05/26 07:25:44;;;;;;;5.15;4.10;;;;;;;20.13;73.27;98115.84;1700290;75;748111;-73
2023/05/26 07:28:14;;;;;;;4.60;3.60;;;;;;;20.24;74.81;98109.34;1709935;75;672721;-70
2023/05/26 07:30:47;;;;;;;5.90;4.25;;;;;;;20.18;74.24;98115.75;1700451;75;751748;-71
2023/05/26 07:33:18;;;;;;;7.70;4.70;;;;;;;20.18;69.42;98118.53;1707153;75;855248;-70
2023/05/26 07:35:48;;;;;;;5.25;3.80;;;;;;;20.31;69.17;98114.28;1700662;75;745079;-71
2023/05/26 07:38:18;;;;;;;7.80;4.95;;;;;;;20.55;69.17;98116.16;1710371;75;677241;-73
2023/05/26 07:40:48;;;;;;;5.70;4.40;;;;;;;20.44;68.42;98114.31;1698489;75;937708;-74
2023/05/26 07:43:18;;;;;;;5.95;4.15;;;;;;;20.62;68.58;98110.72;1710084;75;694142;-71
2023/05/26 07:45:51;;;;;;;6.25;5.30;;;;;;;20.76;67.34;98114.28;1700476;75;747785;-74
2023/05/26 07:48:21;;;;;;;6.70;4.50;;;;;;;20.63;64.41;98115.00;1709341;75;669440;-69
2023/05/26 07:50:52;;;;;;;5.00;3.80;;;;;;;20.92;64.23;98122.81;1701269;75;751268;-73
2023/05/26 07:53:22;;;;;;;4.60;3.55;;;;;;;21.06;64.03;98115.97;1710387;75;669131;-70
2023/05/26 07:55:52;;;;;;;6.00;4.00;;;;;;;21.14;64.29;98119.63;1700435;75;746309;-70
2023/05/26 07:58:23;;;;;;;4.60;3.30;;;;;;;21.28;62.77;98115.50;1708752;75;675818;-71
2023/05/26 08:00:55;;;;;;;8.30;3.50;;;;;;;21.40;61.97;98113.25;1698932;75;856360;-70
2023/05/26 08:03:26;;;;;;;3.50;2.80;;;;;;;21.61;63.54;98112.56;1710323;75;671531;-73
2023/05/26 08:05:56;;;;;;;5.65;3.50;;;;;;;21.65;59.81;98110.22;1700666;75;745835;-72
2023/05/26 08:08:26;;;;;;;5.30;3.40;;;;;;;21.43;59.12;98112.19;1709406;75;677109;-72
2023/05/26 08:10:56;;;;;;;5.00;3.50;;;;;;;21.60;61.35;98111.06;1700277;75;765082;-70
2023/05/26 08:13:26;;;;;;;6.30;4.20;;;;;;;21.53;59.59;98104.13;1695684;75;1852146;-68
2023/05/26 08:16:00;;;;;;;6.15;3.70;;;;;;;21.57;59.07;98107.31;1700605;75;738442;-69
2023/05/26 08:18:31;;;;;;;3.90;3.00;;;;;;;21.98;59.16;98110.72;1709520;75;678283;-72
2023/05/26 08:21:01;;;;;;;6.50;3.60;;;;;;;21.86;56.64;98104.66;1701013;75;757872;-71
2023/05/26 08:23:31;;;;;;;4.05;3.35;;;;;;;21.95;57.27;98106.22;1709666;75;674270;-73
2023/05/26 08:26:01;;;;;;;3.85;2.80;;;;;;;22.29;57.70;98104.13;1700488;75;743309;-71
2023/05/26 08:28:32;;;;;;;6.80;3.40;;;;;;;22.53;58.46;98110.63;1709569;75;687566;-71
2023/05/26 08:31:05;;;;;;;5.55;3.60;;;;;;;22.13;57.36;98096.91;1701226;75;740189;-69
2023/05/26 08:33:35;;;;;;;5.80;3.80;;;;;;;22.22;57.71;98096.44;1709007;75;675642;-70
2023/05/26 08:36:05;;;;;;;5.50;2.70;;;;;;;22.86;56.65;98105.47;1697900;75;814840;-71
2023/05/26 08:38:36;;;;;;;4.00;2.80;;;;;;;22.72;54.18;98102.75;1709528;75;675732;-72
2023/05/26 08:41:09;;;;;;;3.75;2.85;;;;;;;22.88;53.93;98095.25;1700028;75;757856;-70
2023/05/26 08:43:47;;;;;;;7.60;4.00;;;;;;;21.88;56.09;98090.91;1709858;75;673931;-72
2023/05/26 08:46:21;;;;;;;5.60;3.90;;;;;;;22.60;56.51;98089.66;1700426;75;755287;-70
2023/05/26 08:48:53;;;;;;;4.20;3.10;;;;;;;22.83;55.27;98098.94;1709643;75;669216;-70
2023/05/26 08:51:27;;;;;;;4.40;3.00;;;;;;;22.99;54.04;98096.25;1700248;75;756699;-71
2023/05/26 08:53:57;;;;;;;4.10;2.90;;;;;;;23.31;56.76;98091.00;1709767;75;679644;-68
2023/05/26 08:56:27;;;;;;;3.75;2.95;;;;;;;23.17;52.65;98095.22;1701167;75;755262;-70
2023/05/26 08:59:00;;;;;;;7.00;3.60;;;;;;;23.25;52.10;98089.66;1708462;75;681414;-71
2023/05/26 09:01:33;;;;;;;3.70;3.15;;;;;;;23.55;53.81;98089.03;1699967;75;755006;-73
2023/05/26 09:04:03;;;;;;;4.10;3.00;;;;;;;23.52;51.49;98092.91;1708767;75;675918;-74
2023/05/26 09:06:33;;;;;;;3.75;2.60;;;;;;;23.84;52.16;98086.88;1699904;75;754879;-73
2023/05/26 09:09:03;;;;;;;4.30;3.15;;;;;;;23.97;51.86;98088.75;1709840;75;680989;-72
2023/05/26 09:11:34;;;;;;;5.65;3.35;;;;;;;24.14;50.80;98082.59;1699004;75;743689;-74
2023/05/26 09:14:06;;;;;;;2.95;2.55;;;;;;;24.33;50.59;98090.63;1707866;75;677172;-70
2023/05/26 09:16:41;;;;;;;3.85;2.60;;;;;;;24.09;51.12;98091.94;1699215;75;747948;-72
2023/05/26 09:19:17;;;;;;;4.70;2.90;;;;;;;24.30;51.21;98086.16;1707982;75;831786;-69
2023/05/26 09:21:50;;;;;;;5.30;3.20;;;;;;;24.47;50.64;98089.16;1698292;75;853595;-72
2023/05/26 09:24:27;;;;;;;2.90;2.25;;;;;;;24.93;48.95;98083.47;1705821;75;892155;-70
2023/05/26 09:26:57;;;;;;;4.95;3.40;;;;;;;24.44;49.00;98090.25;1700283;75;743918;-71
2023/05/26 09:29:27;;;;;;;5.55;3.80;;;;;;;24.51;47.63;98083.94;1710052;75;666584;-73
2023/05/26 09:32:01;;;;;;;4.80;3.00;;;;;;;24.51;47.65;98083.16;1655410;75;4041030;-71
2023/05/26 09:34:32;;;;;;;5.50;3.65;;;;;;;24.46;47.78;98084.84;1707801;75;672317;-73
2023/05/26 09:37:03;;;;;;;6.15;3.10;;;;;;;24.18;47.84;98086.53;1700811;75;726407;-69
2023/05/26 09:39:36;;;;;;;3.15;2.65;;;;;;;24.42;47.59;98076.06;1709741;75;668774;-71
2023/05/26 09:42:10;;;;;;;3.35;2.90;;;;;;;24.56;46.89;98082.25;1700761;75;754512;-69
2023/05/26 09:44:40;;;;;;;4.55;3.20;;;;;;;24.62;47.91;98074.38;1708781;75;671952;-67
2023/05/26 09:47:22;;;;;;;4.10;2.90;;;;;;;25.05;45.62;98073.31;1699744;75;747037;-72
2023/05/26 09:49:55;;;;;;;4.70;3.10;;;;;;;25.05;46.98;98070.53;1700964;75;671635;-69
2023/05/26 09:52:26;;;;;;;3.60;2.70;;;;;;;25.17;47.17;98065.28;1708968;75;670976;-70
2023/05/26 09:54:56;;;;;;;4.40;3.10;;;;;;;25.35;45.61;98065.38;1701036;75;669766;-71
2023/05/26 09:57:28;;;;;;;5.20;3.20;;;;;;;25.36;45.68;98062.03;1709062;75;673854;-71
2023/05/26 10:00:00;;;;;;;7.10;3.70;;;;;;;25.12;45.25;98065.47;1701851;75;673412;-74
2023/05/26 10:02:33;;;;;;;3.75;3.05;;;;;;;25.38;44.95;98067.06;1709495;75;669491;-72
2023/05/26 10:05:04;;;;;;;5.40;3.35;;;;;;;25.29;44.64;98057.19;1701573;75;673875;-71
2023/05/26 10:07:36;;;;;;;5.40;3.50;;;;;;;25.21;45.49;98060.03;1706710;75;981076;-70
2023/05/26 10:10:08;;;;;;;3.50;2.80;;;;;;;25.26;45.85;98058.34;1699941;75;886649;-71
2023/05/26 10:12:39;;;;;;;4.30;3.00;;;;;;;25.47;44.97;98058.78;1710324;75;671703;-72
2023/05/26 10:15:11;;;;;;;3.65;3.05;;;;;;;25.81;45.52;98060.25;1701391;75;671759;-72
2023/05/26 10:17:44;;;;;;;3.70;2.90;;;;;;;25.75;44.95;98062.53;1709693;75;673642;-72
2023/05/26 10:20:15;;;;;;;5.75;3.20;;;;;;;25.29;45.11;98052.34;1701530;75;759194;-72
2023/05/26 10:22:55;;;;;;;4.55;3.35;;;;;;;25.14;46.27;98048.84;1709659;75;677157;-69
2023/05/26 10:25:31;;;;;;;4.75;3.50;;;;;;;24.84;47.52;98058.84;1699337;75;756948;-69
2023/05/26 10:28:12;;;;;;;4.70;3.70;;;;;;;24.73;47.80;98056.47;1698057;75;868866;-68
2023/05/26 10:30:45;;;;;;;4.20;3.00;;;;;;;24.94;47.20;98053.38;1708140;75;695440;-69
2023/05/26 10:33:19;;;;;;;4.20;3.30;;;;;;;24.71;47.41;98047.88;1698815;75;838147;-69
2023/05/26 10:36:00;;;;;;;4.30;3.55;;;;;;;24.64;48.55;98049.38;1708150;75;671626;-72
2023/05/26 10:38:38;;;;;;;4.50;3.10;;;;;;;24.63;48.98;98050.69;1700865;75;739472;-71
2023/05/26 10:41:14;;;;;;;5.00;3.10;;;;;;;24.60;47.79;98046.94;1701846;75;669256;-71
2023/05/26 10:43:45;;;;;;;4.00;3.00;;;;;;;24.64;47.53;98049.38;1708926;75;671761;-73
2023/05/26 10:46:15;;;;;;;7.30;3.10;;;;;;;24.72;48.32;98049.34;1699892;75;671048;-69
2023/05/26 10:49:00;;;;;;;3.50;3.10;;;;;;;24.49;47.40;98044.56;1709235;75;672047;-69
2023/05/26 10:51:32;;;;;;;6.05;3.85;;;;;;;24.39;48.72;98052.75;1700163;75;751730;-75
2023/05/26 10:54:18;;;;;;;6.00;3.50;;;;;;;24.19;47.86;98046.03;1707486;75;675574;-76
2023/05/26 10:56:51;;;;;;;5.60;4.50;;;;;;;24.45;48.69;98046.94;1700974;75;749956;-75
2023/05/26 10:59:31;;;;;;;4.90;3.40;;;;;;;24.72;50.03;98047.28;1708336;75;687254;-71
2023/05/26 11:02:06;;;;;;;4.25;3.45;;;;;;;24.86;49.44;98037.34;1700944;75;750556;-74
2023/05/26 11:04:48;;;;;;;5.50;3.90;;;;;;;24.70;49.14;98040.75;1708822;75;672720;-69
2023/05/26 11:07:20;;;;;;;5.40;4.00;;;;;;;24.55;48.88;98041.56;1700121;75;755206;-70
2023/05/26 11:10:08;;;;;;;4.60;3.60;;;;;;;24.67;48.27;98034.25;1707179;75;864922;-73
2023/05/26 11:12:39;;;;;;;5.70;4.00;;;;;;;24.70;50.38;98035.91;1698501;75;808284;-71
2023/05/26 11:15:28;;;;;;;4.80;3.60;;;;;;;25.37;50.49;98026.31;1709313;75;675383;-74
2023/05/26 11:18:00;;;;;;;4.85;3.55;;;;;;;25.37;47.54;98023.53;1700988;75;766205;-70
2023/05/26 11:20:34;;;;;;;4.35;3.55;;;;;;;25.80;47.62;98024.38;1710196;75;673931;-71
2023/05/26 11:23:04;;;;;;;8.00;4.00;;;;;;;25.15;47.98;98031.44;1699745;75;781774;-72
2023/05/26 11:25:43;;;;;;;5.40;3.70;;;;;;;25.37;48.46;98020.72;1710554;75;672290;-73
2023/05/26 11:28:17;;;;;;;4.40;3.35;;;;;;;26.35;48.46;98026.91;1701930;75;747250;-70
2023/05/26 11:30:48;;;;;;;4.40;3.40;;;;;;;26.61;44.56;98021.25;1710843;75;676459;-70
2023/05/26 11:33:20;;;;;;;4.60;4.00;;;;;;;26.52;43.70;98022.63;1701586;75;745995;-72
2023/05/26 11:35:52;;;;;;;4.60;3.55;;;;;;;26.30;44.09;98030.69;1707822;75;669072;-70
2023/05/26 11:38:23;;;;;;;5.85;3.50;;;;;;;26.53;45.54;98024.09;1700444;75;753878;-71
2023/05/26 11:40:53;;;;;;;3.70;2.90;;;;;;;26.93;45.92;98020.31;1708935;75;670375;-73
2023/05/26 11:43:27;;;;;;;8.25;3.70;;;;;;;26.51;44.76;98019.09;1699372;75;749132;-70
2023/05/26 11:45:57;;;;;;;3.95;3.30;;;;;;;26.54;44.24;98025.63;1708951;75;691044;-69
2023/05/26 11:48:27;;;;;;;5.05;3.30;;;;;;;26.32;43.63;98019.66;1700720;75;740915;-71
2023/05/26 11:51:00;;;;;;;5.65;3.50;;;;;;;26.00;45.62;98025.34;1709334;75;707346;-72
2023/05/26 11:53:33;;;;;;;4.25;3.25;;;;;;;25.99;43.69;98026.69;1699235;75;754855;-70
2023/05/26 11:56:11;;;;;;;3.20;2.70;;;;;;;26.60;44.72;98014.16;1708559;75;669714;-71
2023/05/26 11:58:45;;;;;;;4.05;2.45;;;;;;;27.01;44.56;98014.59;1700837;75;740144;-71
2023/05/26 12:01:16;;;;;;;5.00;3.10;;;;;;;26.70;45.16;98017.78;1709633;75;673321;-73
2023/05/26 12:03:49;;;;;;;4.90;3.55;;;;;;;26.26;46.69;98018.38;1701265;75;735949;-69
2023/05/26 12:06:24;;;;;;;5.10;3.50;;;;;;;26.29;46.04;98020.81;1708613;75;684219;-71
2023/05/26 12:08:56;;;;;;;5.35;3.25;;;;;;;26.20;44.60;98018.63;1700916;75;733773;-73
2023/05/26 12:11:34;;;;;;;4.50;2.70;;;;;;;26.03;44.59;98022.16;1708869;75;682578;-70
2023/05/26 12:14:06;;;;;;;4.60;3.40;;;;;;;25.93;44.26;98022.06;1699682;75;751623;-72
2023/05/26 12:16:38;;;;;;;4.10;3.00;;;;;;;25.95;45.30;98015.84;1708905;75;693786;-71
2023/05/26 12:19:12;;;;;;;4.40;3.00;;;;;;;26.08;44.88;98012.75;1700867;75;750373;-72
2023/05/26 12:21:47;;;;;;;4.55;3.60;;;;;;;25.84;45.38;98011.44;1710196;75;674917;-69
2023/05/26 12:24:33;;;;;;;3.80;3.00;;;;;;;26.13;46.32;98008.22;1700207;75;794122;-71
2023/05/26 12:27:09;;;;;;;4.50;3.30;;;;;;;26.47;43.75;98006.78;1702379;75;676160;-73
2023/05/26 12:29:40;;;;;;;5.10;3.20;;;;;;;26.59;44.82;98002.19;1709292;75;676636;-74
2023/05/26 12:32:12;;;;;;;6.15;3.30;;;;;;;26.80;45.19;97998.94;1701778;75;672999;-72
2023/05/26 12:34:44;;;;;;;5.20;3.60;;;;;;;26.59;43.55;97995.81;1708636;75;670255;-73
2023/05/26 12:37:17;;;;;;;4.60;3.30;;;;;;;26.73;44.36;97999.78;1699936;75;821860;-72
2023/05/26 12:39:47;;;;;;;3.95;3.20;;;;;;;26.79;43.21;97991.81;1709585;75;671820;-71
2023/05/26 12:42:17;;;;;;;5.50;3.30;;;;;;;27.31;42.84;97985.38;1702144;75;673239;-71
2023/05/26 12:44:47;;;;;;;5.00;3.50;;;;;;;27.69;42.65;97987.63;1708218;75;673798;-75
2023/05/26 12:47:17;;;;;;;4.70;2.90;;;;;;;27.98;42.36;97993.38;1701432;75;685606;-69
2023/05/26 12:49:47;;;;;;;4.40;3.60;;;;;;;27.32;41.78;97981.97;1709718;75;674059;-70
2023/05/26 12:52:20;;;;;;;3.60;2.80;;;;;;;28.07;41.17;97983.47;1701601;75;726031;-75
2023/05/26 12:54:51;;;;;;;2.65;2.20;;;;;;;28.46;40.57;97980.72;1708245;75;675107;-69
2023/05/26 12:57:21;;;;;;;4.05;3.25;;;;;;;27.54;41.64;97987.84;1700657;75;753766;-74
2023/05/26 12:59:51;;;;;;;5.40;3.15;;;;;;;27.39;40.74;97969.88;1709582;75;679796;-69
2023/05/26 13:02:22;;;;;;;4.15;2.85;;;;;;;27.72;41.59;97986.44;1699952;75;751933;-73
2023/05/26 13:04:53;;;;;;;5.70;3.60;;;;;;;27.04;41.51;97980.47;1708527;75;671332;-71
2023/05/26 13:07:26;;;;;;;3.65;3.05;;;;;;;26.97;41.59;97975.69;1700808;75;746966;-72
2023/05/26 13:09:56;;;;;;;4.60;3.70;;;;;;;26.26;42.08;97979.09;1708652;75;677678;-70